sensor_id;sensor_type;location;lat;lon;timestamp;temperature;humidity
6641;DHT22;3356;49.360;8.266;2022-09-03T00:01:27;18.20;91.40
6641;DHT22;3356;49.360;8.266;2022-09-03T00:03:44;18.20;91.30
6641;DHT22;3356;49.360;8.266;2022-09-03T00:06:23;18.20;91.20
6641;DHT22;3356;49.360;8.266;2022-09-03T00:08:37;18.20;91.30
6641;DHT22;3356;49.360;8.266;2022-09-03T00:12:53;18.20;90.60
6641;DHT22;3356;49.360;8.266;2022-09-03T00:15:05;18.20;90.80
6641;DHT22;3356;49.360;8.266;2022-09-03T00:17:14;18.20;90.90
6641;DHT22;3356;49.360;8.266;2022-09-03T00:19:23;18.20;90.10
6641;DHT22;3356;49.360;8.266;2022-09-03T00:21:43;18.20;89.00
6641;DHT22;3356;49.360;8.266;2022-09-03T00:23:46;18.20;90.20
6641;DHT22;3356;49.360;8.266;2022-09-03T00:28:17;18.20;90.10
6641;DHT22;3356;49.360;8.266;2022-09-03T00:30:18;18.10;88.50
6641;DHT22;3356;49.360;8.266;2022-09-03T00:32:28;18.10;89.70
6641;DHT22;3356;49.360;8.266;2022-09-03T00:34:40;18.10;88.90
6641;DHT22;3356;49.360;8.266;2022-09-03T00:36:44;18.10;89.20
6641;DHT22;3356;49.360;8.266;2022-09-03T00:38:45;18.10;88.50
6641;DHT22;3356;49.360;8.266;2022-09-03T00:46:03;18.10;90.80
6641;DHT22;3356;49.360;8.266;2022-09-03T01:02:06;18.10;90.30
6641;DHT22;3356;49.360;8.266;2022-09-03T01:13:42;17.90;90.00
6641;DHT22;3356;49.360;8.266;2022-09-03T01:18:27;17.90;89.50
6641;DHT22;3356;49.360;8.266;2022-09-03T01:22:58;18.00;90.80
6641;DHT22;3356;49.360;8.266;2022-09-03T01:30:05;18.00;89.50
6641;DHT22;3356;49.360;8.266;2022-09-03T01:34:44;17.90;90.30
6641;DHT22;3356;49.360;8.266;2022-09-03T01:36:58;18.00;90.90
6641;DHT22;3356;49.360;8.266;2022-09-03T01:39:05;17.90;91.40
6641;DHT22;3356;49.360;8.266;2022-09-03T01:44:48;18.00;91.40
6641;DHT22;3356;49.360;8.266;2022-09-03T01:46:39;18.00;89.40
6641;DHT22;3356;49.360;8.266;2022-09-03T01:48:57;18.00;90.40
6641;DHT22;3356;49.360;8.266;2022-09-03T01:51:27;18.00;90.80
6641;DHT22;3356;49.360;8.266;2022-09-03T02:02:19;17.90;91.40
6641;DHT22;3356;49.360;8.266;2022-09-03T02:04:23;17.90;91.30
6641;DHT22;3356;49.360;8.266;2022-09-03T02:06:26;17.90;91.70
6641;DHT22;3356;49.360;8.266;2022-09-03T02:08:28;17.80;91.10
6641;DHT22;3356;49.360;8.266;2022-09-03T02:10:46;17.80;91.00
6641;DHT22;3356;49.360;8.266;2022-09-03T02:12:51;17.70;91.70
6641;DHT22;3356;49.360;8.266;2022-09-03T02:14:54;17.70;92.00
6641;DHT22;3356;49.360;8.266;2022-09-03T02:16:57;17.60;91.90
6641;DHT22;3356;49.360;8.266;2022-09-03T02:19:06;17.60;91.90
6641;DHT22;3356;49.360;8.266;2022-09-03T02:21:07;17.60;92.60
6641;DHT22;3356;49.360;8.266;2022-09-03T02:23:10;17.60;92.30
6641;DHT22;3356;49.360;8.266;2022-09-03T02:25:11;17.50;92.50
6641;DHT22;3356;49.360;8.266;2022-09-03T02:27:13;17.50;92.80
6641;DHT22;3356;49.360;8.266;2022-09-03T02:29:15;17.50;93.00
6641;DHT22;3356;49.360;8.266;2022-09-03T02:31:17;17.40;93.10
6641;DHT22;3356;49.360;8.266;2022-09-03T02:33:19;17.40;92.80
6641;DHT22;3356;49.360;8.266;2022-09-03T02:35:20;17.40;93.00
6641;DHT22;3356;49.360;8.266;2022-09-03T02:37:21;17.30;93.20
6641;DHT22;3356;49.360;8.266;2022-09-03T02:39:22;17.30;93.30
6641;DHT22;3356;49.360;8.266;2022-09-03T02:41:24;17.30;93.70
6641;DHT22;3356;49.360;8.266;2022-09-03T02:43:32;17.30;93.90
6641;DHT22;3356;49.360;8.266;2022-09-03T02:45:42;17.30;94.00
6641;DHT22;3356;49.360;8.266;2022-09-03T02:47:50;17.30;93.90
6641;DHT22;3356;49.360;8.266;2022-09-03T02:49:52;17.30;94.60
6641;DHT22;3356;49.360;8.266;2022-09-03T02:52:02;17.30;94.10
6641;DHT22;3356;49.360;8.266;2022-09-03T02:54:06;17.30;94.50
6641;DHT22;3356;49.360;8.266;2022-09-03T02:56:08;17.30;94.20
6641;DHT22;3356;49.360;8.266;2022-09-03T02:58:09;17.30;94.30
6641;DHT22;3356;49.360;8.266;2022-09-03T03:00:11;17.30;94.40
6641;DHT22;3356;49.360;8.266;2022-09-03T03:02:12;17.30;94.20
6641;DHT22;3356;49.360;8.266;2022-09-03T03:04:14;17.30;94.40
6641;DHT22;3356;49.360;8.266;2022-09-03T03:06:15;17.30;94.60
6641;DHT22;3356;49.360;8.266;2022-09-03T03:08:17;17.30;95.10
6641;DHT22;3356;49.360;8.266;2022-09-03T03:10:21;17.30;94.70
6641;DHT22;3356;49.360;8.266;2022-09-03T03:12:22;17.30;95.50
6641;DHT22;3356;49.360;8.266;2022-09-03T03:14:23;17.40;95.60
6641;DHT22;3356;49.360;8.266;2022-09-03T03:16:24;17.30;95.50
6641;DHT22;3356;49.360;8.266;2022-09-03T03:18:26;17.30;95.80
6641;DHT22;3356;49.360;8.266;2022-09-03T03:20:28;17.30;95.80
6641;DHT22;3356;49.360;8.266;2022-09-03T03:22:29;17.30;96.00
6641;DHT22;3356;49.360;8.266;2022-09-03T03:24:30;17.30;96.20
6641;DHT22;3356;49.360;8.266;2022-09-03T03:26:32;17.30;96.20
6641;DHT22;3356;49.360;8.266;2022-09-03T03:28:34;17.30;96.20
6641;DHT22;3356;49.360;8.266;2022-09-03T03:30:39;17.30;96.20
6641;DHT22;3356;49.360;8.266;2022-09-03T03:32:40;17.30;95.30
6641;DHT22;3356;49.360;8.266;2022-09-03T03:34:41;17.30;94.90
6641;DHT22;3356;49.360;8.266;2022-09-03T03:36:42;17.30;94.70
6641;DHT22;3356;49.360;8.266;2022-09-03T03:38:44;17.30;94.60
6641;DHT22;3356;49.360;8.266;2022-09-03T03:40:45;17.30;95.10
6641;DHT22;3356;49.360;8.266;2022-09-03T03:42:46;17.30;94.80
6641;DHT22;3356;49.360;8.266;2022-09-03T03:44:47;17.30;95.30
6641;DHT22;3356;49.360;8.266;2022-09-03T03:46:49;17.30;95.30
6641;DHT22;3356;49.360;8.266;2022-09-03T03:48:51;17.30;95.20
6641;DHT22;3356;49.360;8.266;2022-09-03T03:50:52;17.20;95.10
6641;DHT22;3356;49.360;8.266;2022-09-03T03:52:54;17.30;94.20
6641;DHT22;3356;49.360;8.266;2022-09-03T03:54:55;17.20;94.20
6641;DHT22;3356;49.360;8.266;2022-09-03T03:56:57;17.20;94.00
6641;DHT22;3356;49.360;8.266;2022-09-03T03:58:58;17.30;94.30
6641;DHT22;3356;49.360;8.266;2022-09-03T04:01:05;17.30;94.50
6641;DHT22;3356;49.360;8.266;2022-09-03T04:03:07;17.30;95.20
6641;DHT22;3356;49.360;8.266;2022-09-03T04:05:08;17.30;95.40
6641;DHT22;3356;49.360;8.266;2022-09-03T04:07:09;17.30;95.40
6641;DHT22;3356;49.360;8.266;2022-09-03T04:09:10;17.30;94.40
6641;DHT22;3356;49.360;8.266;2022-09-03T04:11:14;17.30;94.80
6641;DHT22;3356;49.360;8.266;2022-09-03T04:13:15;17.30;94.70
6641;DHT22;3356;49.360;8.266;2022-09-03T04:15:17;17.30;94.70
6641;DHT22;3356;49.360;8.266;2022-09-03T04:17:18;17.30;94.90
6641;DHT22;3356;49.360;8.266;2022-09-03T04:19:19;17.30;94.00
6641;DHT22;3356;49.360;8.266;2022-09-03T04:21:22;17.30;94.00
6641;DHT22;3356;49.360;8.266;2022-09-03T04:23:24;17.30;93.90
6641;DHT22;3356;49.360;8.266;2022-09-03T04:25:25;17.30;96.20
6641;DHT22;3356;49.360;8.266;2022-09-03T04:27:26;17.30;96.40
6641;DHT22;3356;49.360;8.266;2022-09-03T04:29:27;17.30;98.00
6641;DHT22;3356;49.360;8.266;2022-09-03T04:31:31;17.30;99.90
6641;DHT22;3356;49.360;8.266;2022-09-03T04:33:33;17.20;99.90
6641;DHT22;3356;49.360;8.266;2022-09-03T04:35:35;17.20;97.30
6641;DHT22;3356;49.360;8.266;2022-09-03T04:37:36;17.20;97.20
6641;DHT22;3356;49.360;8.266;2022-09-03T04:39:37;17.20;98.50
6641;DHT22;3356;49.360;8.266;2022-09-03T04:41:38;17.20;97.20
6641;DHT22;3356;49.360;8.266;2022-09-03T04:43:40;17.20;97.40
6641;DHT22;3356;49.360;8.266;2022-09-03T04:45:43;17.20;97.20
6641;DHT22;3356;49.360;8.266;2022-09-03T04:47:54;17.20;96.80
6641;DHT22;3356;49.360;8.266;2022-09-03T04:49:55;17.20;97.90
6641;DHT22;3356;49.360;8.266;2022-09-03T04:51:57;17.20;97.60
6641;DHT22;3356;49.360;8.266;2022-09-03T04:53:59;17.20;97.90
6641;DHT22;3356;49.360;8.266;2022-09-03T04:56:01;17.20;98.90
6641;DHT22;3356;49.360;8.266;2022-09-03T04:58:04;17.20;99.70
6641;DHT22;3356;49.360;8.266;2022-09-03T05:00:08;17.20;99.80
6641;DHT22;3356;49.360;8.266;2022-09-03T05:02:11;17.10;99.30
6641;DHT22;3356;49.360;8.266;2022-09-03T05:04:15;17.10;99.00
6641;DHT22;3356;49.360;8.266;2022-09-03T05:06:16;17.10;98.00
6641;DHT22;3356;49.360;8.266;2022-09-03T05:08:17;17.10;99.20
6641;DHT22;3356;49.360;8.266;2022-09-03T05:10:18;17.10;99.60
6641;DHT22;3356;49.360;8.266;2022-09-03T05:12:23;17.10;99.30
6641;DHT22;3356;49.360;8.266;2022-09-03T05:14:24;17.20;99.90
6641;DHT22;3356;49.360;8.266;2022-09-03T05:16:27;17.20;99.90
6641;DHT22;3356;49.360;8.266;2022-09-03T05:18:29;17.20;99.90
6641;DHT22;3356;49.360;8.266;2022-09-03T05:20:31;17.20;99.60
6641;DHT22;3356;49.360;8.266;2022-09-03T05:22:33;17.20;99.30
6641;DHT22;3356;49.360;8.266;2022-09-03T05:24:35;17.20;97.70
6641;DHT22;3356;49.360;8.266;2022-09-03T05:26:38;17.20;96.80
6641;DHT22;3356;49.360;8.266;2022-09-03T05:28:41;17.30;96.90
6641;DHT22;3356;49.360;8.266;2022-09-03T05:30:42;17.30;97.00
6641;DHT22;3356;49.360;8.266;2022-09-03T05:32:43;17.40;96.90
6641;DHT22;3356;49.360;8.266;2022-09-03T05:34:44;17.40;96.30
6641;DHT22;3356;49.360;8.266;2022-09-03T05:36:45;17.50;96.00
6641;DHT22;3356;49.360;8.266;2022-09-03T05:38:50;17.60;97.20
6641;DHT22;3356;49.360;8.266;2022-09-03T05:40:51;17.70;98.40
6641;DHT22;3356;49.360;8.266;2022-09-03T05:42:55;17.70;95.80
6641;DHT22;3356;49.360;8.266;2022-09-03T05:44:58;17.80;96.10
6641;DHT22;3356;49.360;8.266;2022-09-03T05:47:00;17.70;95.80
6641;DHT22;3356;49.360;8.266;2022-09-03T05:49:03;17.70;96.30
6641;DHT22;3356;49.360;8.266;2022-09-03T05:53:07;17.70;96.50
6641;DHT22;3356;49.360;8.266;2022-09-03T05:55:08;17.60;96.10
6641;DHT22;3356;49.360;8.266;2022-09-03T05:57:10;17.60;95.50
6641;DHT22;3356;49.360;8.266;2022-09-03T05:59:11;17.60;95.70
6641;DHT22;3356;49.360;8.266;2022-09-03T06:01:15;17.50;96.90
6641;DHT22;3356;49.360;8.266;2022-09-03T06:03:17;17.50;99.70
6641;DHT22;3356;49.360;8.266;2022-09-03T06:05:18;17.50;99.90
6641;DHT22;3356;49.360;8.266;2022-09-03T06:07:20;17.40;99.90
6641;DHT22;3356;49.360;8.266;2022-09-03T06:09:21;17.30;99.90
6641;DHT22;3356;49.360;8.266;2022-09-03T06:11:23;17.30;99.90
6641;DHT22;3356;49.360;8.266;2022-09-03T06:13:27;17.30;99.90
6641;DHT22;3356;49.360;8.266;2022-09-03T06:15:29;17.30;99.90
6641;DHT22;3356;49.360;8.266;2022-09-03T06:17:30;17.20;99.90
6641;DHT22;3356;49.360;8.266;2022-09-03T06:19:31;17.20;99.90
6641;DHT22;3356;49.360;8.266;2022-09-03T06:21:33;17.20;99.90
6641;DHT22;3356;49.360;8.266;2022-09-03T06:23:36;17.20;99.90
6641;DHT22;3356;49.360;8.266;2022-09-03T06:25:37;17.20;99.90
6641;DHT22;3356;49.360;8.266;2022-09-03T06:27:38;17.20;99.90
6641;DHT22;3356;49.360;8.266;2022-09-03T06:29:39;17.10;99.90
6641;DHT22;3356;49.360;8.266;2022-09-03T06:31:41;17.10;99.90
6641;DHT22;3356;49.360;8.266;2022-09-03T06:33:43;17.20;99.90
6641;DHT22;3356;49.360;8.266;2022-09-03T06:35:44;17.10;99.90
6641;DHT22;3356;49.360;8.266;2022-09-03T06:37:46;17.10;99.90
6641;DHT22;3356;49.360;8.266;2022-09-03T06:39:47;17.00;99.90
6641;DHT22;3356;49.360;8.266;2022-09-03T06:41:50;17.00;99.90
6641;DHT22;3356;49.360;8.266;2022-09-03T06:44:01;17.00;99.90
6641;DHT22;3356;49.360;8.266;2022-09-03T06:46:05;17.10;99.90
6641;DHT22;3356;49.360;8.266;2022-09-03T06:48:07;17.10;99.90
6641;DHT22;3356;49.360;8.266;2022-09-03T06:50:08;17.00;99.90
6641;DHT22;3356;49.360;8.266;2022-09-03T06:52:10;17.00;99.90
6641;DHT22;3356;49.360;8.266;2022-09-03T06:54:11;17.00;99.90
6641;DHT22;3356;49.360;8.266;2022-09-03T06:56:18;17.00;99.90
6641;DHT22;3356;49.360;8.266;2022-09-03T06:58:30;17.00;99.90
6641;DHT22;3356;49.360;8.266;2022-09-03T07:00:32;17.00;99.90
6641;DHT22;3356;49.360;8.266;2022-09-03T07:02:33;17.00;99.90
6641;DHT22;3356;49.360;8.266;2022-09-03T07:04:34;17.00;99.90
6641;DHT22;3356;49.360;8.266;2022-09-03T07:06:37;17.00;99.90
6641;DHT22;3356;49.360;8.266;2022-09-03T07:08:40;17.00;99.90
6641;DHT22;3356;49.360;8.266;2022-09-03T07:10:45;17.00;99.90
6641;DHT22;3356;49.360;8.266;2022-09-03T07:12:47;17.00;99.90
6641;DHT22;3356;49.360;8.266;2022-09-03T07:14:48;17.00;99.90
6641;DHT22;3356;49.360;8.266;2022-09-03T07:16:50;16.90;99.90
6641;DHT22;3356;49.360;8.266;2022-09-03T07:18:51;16.90;99.90
6641;DHT22;3356;49.360;8.266;2022-09-03T07:21:00;16.90;99.90
6641;DHT22;3356;49.360;8.266;2022-09-03T07:23:02;16.80;99.90
6641;DHT22;3356;49.360;8.266;2022-09-03T07:25:04;16.80;99.90
6641;DHT22;3356;49.360;8.266;2022-09-03T07:27:05;16.90;99.90
6641;DHT22;3356;49.360;8.266;2022-09-03T07:29:08;16.90;99.90
6641;DHT22;3356;49.360;8.266;2022-09-03T07:31:11;16.90;99.90
6641;DHT22;3356;49.360;8.266;2022-09-03T07:33:12;16.80;99.90
6641;DHT22;3356;49.360;8.266;2022-09-03T07:35:14;16.80;99.90
6641;DHT22;3356;49.360;8.266;2022-09-03T07:37:15;16.80;99.90
6641;DHT22;3356;49.360;8.266;2022-09-03T07:39:18;16.80;99.90
6641;DHT22;3356;49.360;8.266;2022-09-03T07:41:19;16.90;99.90
6641;DHT22;3356;49.360;8.266;2022-09-03T07:43:21;16.80;99.90
6641;DHT22;3356;49.360;8.266;2022-09-03T07:45:22;16.70;99.90
6641;DHT22;3356;49.360;8.266;2022-09-03T07:47:24;16.70;99.90
6641;DHT22;3356;49.360;8.266;2022-09-03T07:49:26;16.60;99.90
6641;DHT22;3356;49.360;8.266;2022-09-03T07:51:29;16.60;99.90
6641;DHT22;3356;49.360;8.266;2022-09-03T07:53:30;16.50;99.90
6641;DHT22;3356;49.360;8.266;2022-09-03T07:55:31;16.60;99.90
6641;DHT22;3356;49.360;8.266;2022-09-03T07:57:33;16.60;99.90
6641;DHT22;3356;49.360;8.266;2022-09-03T07:59:34;16.50;99.90
6641;DHT22;3356;49.360;8.266;2022-09-03T08:01:36;16.40;99.90
6641;DHT22;3356;49.360;8.266;2022-09-03T08:03:41;16.50;99.90
6641;DHT22;3356;49.360;8.266;2022-09-03T08:05:43;16.50;99.90
6641;DHT22;3356;49.360;8.266;2022-09-03T08:07:46;16.50;99.90
6641;DHT22;3356;49.360;8.266;2022-09-03T08:09:48;16.50;99.90
6641;DHT22;3356;49.360;8.266;2022-09-03T08:11:49;16.60;99.90
6641;DHT22;3356;49.360;8.266;2022-09-03T08:14:01;16.60;99.90
6641;DHT22;3356;49.360;8.266;2022-09-03T08:16:03;16.50;99.90
6641;DHT22;3356;49.360;8.266;2022-09-03T08:18:05;16.60;99.90
6641;DHT22;3356;49.360;8.266;2022-09-03T08:20:06;16.70;99.90
6641;DHT22;3356;49.360;8.266;2022-09-03T08:22:08;16.70;99.90
6641;DHT22;3356;49.360;8.266;2022-09-03T08:24:11;16.80;99.90
6641;DHT22;3356;49.360;8.266;2022-09-03T08:26:13;16.80;99.90
6641;DHT22;3356;49.360;8.266;2022-09-03T08:28:15;16.90;99.90
6641;DHT22;3356;49.360;8.266;2022-09-03T08:30:16;16.90;99.90
6641;DHT22;3356;49.360;8.266;2022-09-03T08:32:17;17.00;99.90
6641;DHT22;3356;49.360;8.266;2022-09-03T08:34:19;17.00;99.90
6641;DHT22;3356;49.360;8.266;2022-09-03T08:36:21;16.80;99.90
6641;DHT22;3356;49.360;8.266;2022-09-03T08:38:22;16.90;99.90
6641;DHT22;3356;49.360;8.266;2022-09-03T08:40:25;17.00;99.90
6641;DHT22;3356;49.360;8.266;2022-09-03T08:45:02;17.00;99.90
6641;DHT22;3356;49.360;8.266;2022-09-03T08:47:21;17.00;99.90
6641;DHT22;3356;49.360;8.266;2022-09-03T08:51:51;17.10;99.90
6641;DHT22;3356;49.360;8.266;2022-09-03T08:53:55;17.10;99.90
6641;DHT22;3356;49.360;8.266;2022-09-03T08:56:06;17.30;99.90
6641;DHT22;3356;49.360;8.266;2022-09-03T08:58:15;17.50;99.90
6641;DHT22;3356;49.360;8.266;2022-09-03T09:00:20;17.60;99.90
6641;DHT22;3356;49.360;8.266;2022-09-03T09:05:11;18.00;99.90
6641;DHT22;3356;49.360;8.266;2022-09-03T09:07:35;18.20;99.90
6641;DHT22;3356;49.360;8.266;2022-09-03T09:10:02;18.60;99.90
6641;DHT22;3356;49.360;8.266;2022-09-03T09:19:19;19.40;99.90
6641;DHT22;3356;49.360;8.266;2022-09-03T09:21:48;19.40;99.90
6641;DHT22;3356;49.360;8.266;2022-09-03T09:23:53;19.40;99.90
6641;DHT22;3356;49.360;8.266;2022-09-03T09:26:00;19.50;99.90
6641;DHT22;3356;49.360;8.266;2022-09-03T09:28:29;19.70;99.90
6641;DHT22;3356;49.360;8.266;2022-09-03T09:30:30;19.80;99.90
6641;DHT22;3356;49.360;8.266;2022-09-03T09:32:32;19.70;99.90
6641;DHT22;3356;49.360;8.266;2022-09-03T09:34:41;19.80;99.90
6641;DHT22;3356;49.360;8.266;2022-09-03T09:36:51;19.80;99.90
6641;DHT22;3356;49.360;8.266;2022-09-03T09:38:53;19.90;99.90
6641;DHT22;3356;49.360;8.266;2022-09-03T09:40:54;20.30;99.90
6641;DHT22;3356;49.360;8.266;2022-09-03T09:43:17;20.50;99.90
6641;DHT22;3356;49.360;8.266;2022-09-03T09:45:22;20.40;99.90
6641;DHT22;3356;49.360;8.266;2022-09-03T09:47:37;20.30;99.90
6641;DHT22;3356;49.360;8.266;2022-09-03T09:51:46;20.10;99.90
6641;DHT22;3356;49.360;8.266;2022-09-03T09:53:59;20.10;99.90
6641;DHT22;3356;49.360;8.266;2022-09-03T09:56:01;20.00;99.90
6641;DHT22;3356;49.360;8.266;2022-09-03T09:58:06;19.80;99.90
6641;DHT22;3356;49.360;8.266;2022-09-03T10:00:13;19.80;99.90
6641;DHT22;3356;49.360;8.266;2022-09-03T10:02:25;19.80;99.90
6641;DHT22;3356;49.360;8.266;2022-09-03T10:04:30;19.90;99.90
6641;DHT22;3356;49.360;8.266;2022-09-03T10:06:31;19.90;99.90
6641;DHT22;3356;49.360;8.266;2022-09-03T10:09:03;19.80;99.90
6641;DHT22;3356;49.360;8.266;2022-09-03T10:11:05;19.70;99.90
6641;DHT22;3356;49.360;8.266;2022-09-03T10:13:11;19.80;99.90
6641;DHT22;3356;49.360;8.266;2022-09-03T10:18:07;20.00;99.90
6641;DHT22;3356;49.360;8.266;2022-09-03T10:22:23;20.20;99.90
6641;DHT22;3356;49.360;8.266;2022-09-03T10:26:39;20.50;99.90
6641;DHT22;3356;49.360;8.266;2022-09-03T10:28:42;20.30;99.90
6641;DHT22;3356;49.360;8.266;2022-09-03T10:33:13;20.50;99.90
6641;DHT22;3356;49.360;8.266;2022-09-03T10:35:28;20.60;99.90
6641;DHT22;3356;49.360;8.266;2022-09-03T10:38:27;20.60;99.90
6641;DHT22;3356;49.360;8.266;2022-09-03T10:40:37;20.70;99.90
6641;DHT22;3356;49.360;8.266;2022-09-03T10:44:59;20.60;99.90
6641;DHT22;3356;49.360;8.266;2022-09-03T10:47:20;20.80;99.90
6641;DHT22;3356;49.360;8.266;2022-09-03T10:49:48;20.80;99.90
6641;DHT22;3356;49.360;8.266;2022-09-03T10:52:09;21.00;99.90
6641;DHT22;3356;49.360;8.266;2022-09-03T10:56:50;21.20;99.90
6641;DHT22;3356;49.360;8.266;2022-09-03T11:06:22;21.60;99.90
6641;DHT22;3356;49.360;8.266;2022-09-03T11:08:35;22.80;99.90
6641;DHT22;3356;49.360;8.266;2022-09-03T11:10:45;21.90;99.90
6641;DHT22;3356;49.360;8.266;2022-09-03T11:15:32;22.20;99.90
6641;DHT22;3356;49.360;8.266;2022-09-03T11:17:50;22.30;99.90
6641;DHT22;3356;49.360;8.266;2022-09-03T11:20:14;22.40;99.90
6641;DHT22;3356;49.360;8.266;2022-09-03T11:22:18;22.20;99.90
6641;DHT22;3356;49.360;8.266;2022-09-03T11:24:23;22.30;99.90
6641;DHT22;3356;49.360;8.266;2022-09-03T11:26:27;22.40;99.90
6641;DHT22;3356;49.360;8.266;2022-09-03T11:28:53;22.40;99.90
6641;DHT22;3356;49.360;8.266;2022-09-03T11:33:13;22.50;99.90
6641;DHT22;3356;49.360;8.266;2022-09-03T11:35:39;22.70;99.90
6641;DHT22;3356;49.360;8.266;2022-09-03T11:37:51;22.60;99.90
6641;DHT22;3356;49.360;8.266;2022-09-03T11:40:38;22.90;99.90
6641;DHT22;3356;49.360;8.266;2022-09-03T11:42:41;23.10;99.90
6641;DHT22;3356;49.360;8.266;2022-09-03T11:44:44;23.00;99.90
6641;DHT22;3356;49.360;8.266;2022-09-03T11:46:57;22.80;99.90
6641;DHT22;3356;49.360;8.266;2022-09-03T11:49:12;22.70;99.90
6641;DHT22;3356;49.360;8.266;2022-09-03T11:51:33;22.70;99.90
6641;DHT22;3356;49.360;8.266;2022-09-03T11:53:37;22.80;99.90
6641;DHT22;3356;49.360;8.266;2022-09-03T11:55:57;22.80;99.90
6641;DHT22;3356;49.360;8.266;2022-09-03T11:58:28;22.80;99.90
6641;DHT22;3356;49.360;8.266;2022-09-03T12:00:29;23.00;99.90
6641;DHT22;3356;49.360;8.266;2022-09-03T12:02:34;23.00;99.90
6641;DHT22;3356;49.360;8.266;2022-09-03T12:07:32;23.50;99.90
6641;DHT22;3356;49.360;8.266;2022-09-03T12:09:49;23.90;99.90
6641;DHT22;3356;49.360;8.266;2022-09-03T12:16:40;23.50;99.90
6641;DHT22;3356;49.360;8.266;2022-09-03T12:18:47;23.50;99.90
6641;DHT22;3356;49.360;8.266;2022-09-03T12:22:55;23.60;99.90
6641;DHT22;3356;49.360;8.266;2022-09-03T12:25:13;23.40;99.90
6641;DHT22;3356;49.360;8.266;2022-09-03T12:27:25;23.20;99.90
6641;DHT22;3356;49.360;8.266;2022-09-03T12:29:28;23.10;99.90
6641;DHT22;3356;49.360;8.266;2022-09-03T12:31:31;23.20;99.90
6641;DHT22;3356;49.360;8.266;2022-09-03T12:33:43;23.20;99.90
6641;DHT22;3356;49.360;8.266;2022-09-03T12:35:56;23.30;99.90
6641;DHT22;3356;49.360;8.266;2022-09-03T12:37:57;23.40;99.90
6641;DHT22;3356;49.360;8.266;2022-09-03T12:39:58;23.50;99.90
6641;DHT22;3356;49.360;8.266;2022-09-03T12:42:03;23.60;99.90
6641;DHT22;3356;49.360;8.266;2022-09-03T12:44:05;23.80;99.90
6641;DHT22;3356;49.360;8.266;2022-09-03T12:46:13;24.00;99.90
6641;DHT22;3356;49.360;8.266;2022-09-03T12:48:16;24.00;99.90
6641;DHT22;3356;49.360;8.266;2022-09-03T12:50:23;24.00;99.90
6641;DHT22;3356;49.360;8.266;2022-09-03T12:52:32;24.10;99.90
6641;DHT22;3356;49.360;8.266;2022-09-03T12:55:00;24.10;99.90
6641;DHT22;3356;49.360;8.266;2022-09-03T12:56:59;24.10;99.90
6641;DHT22;3356;49.360;8.266;2022-09-03T12:59:08;23.80;99.90
6641;DHT22;3356;49.360;8.266;2022-09-03T13:01:15;23.90;99.90
6641;DHT22;3356;49.360;8.266;2022-09-03T13:03:26;23.80;99.90
6641;DHT22;3356;49.360;8.266;2022-09-03T13:05:44;23.80;99.90
6641;DHT22;3356;49.360;8.266;2022-09-03T13:07:54;23.60;99.90
6641;DHT22;3356;49.360;8.266;2022-09-03T13:10:06;23.70;99.90
6641;DHT22;3356;49.360;8.266;2022-09-03T13:12:28;23.60;99.90
6641;DHT22;3356;49.360;8.266;2022-09-03T13:14:42;23.50;99.90
6641;DHT22;3356;49.360;8.266;2022-09-03T13:26:17;23.30;99.90
6641;DHT22;3356;49.360;8.266;2022-09-03T13:33:20;23.40;99.90
6641;DHT22;3356;49.360;8.266;2022-09-03T13:35:36;23.30;99.90
6641;DHT22;3356;49.360;8.266;2022-09-03T13:37:51;23.20;99.90
6641;DHT22;3356;49.360;8.266;2022-09-03T13:40:35;23.30;99.90
6641;DHT22;3356;49.360;8.266;2022-09-03T13:44:37;23.30;99.90
6641;DHT22;3356;49.360;8.266;2022-09-03T13:48:47;23.30;99.90
6641;DHT22;3356;49.360;8.266;2022-09-03T13:55:58;23.40;99.90
6641;DHT22;3356;49.360;8.266;2022-09-03T13:58:17;23.50;99.90
6641;DHT22;3356;49.360;8.266;2022-09-03T14:00:28;23.60;99.90
6641;DHT22;3356;49.360;8.266;2022-09-03T14:07:02;23.70;99.90
6641;DHT22;3356;49.360;8.266;2022-09-03T14:09:26;23.90;99.90
6641;DHT22;3356;49.360;8.266;2022-09-03T14:11:45;23.80;99.90
6641;DHT22;3356;49.360;8.266;2022-09-03T14:14:11;23.70;99.90
6641;DHT22;3356;49.360;8.266;2022-09-03T14:21:02;23.70;99.90
6641;DHT22;3356;49.360;8.266;2022-09-03T14:25:21;23.90;99.90
6641;DHT22;3356;49.360;8.266;2022-09-03T14:27:28;23.70;99.90
6641;DHT22;3356;49.360;8.266;2022-09-03T14:29:32;23.70;99.90
6641;DHT22;3356;49.360;8.266;2022-09-03T14:31:48;23.50;99.90
6641;DHT22;3356;49.360;8.266;2022-09-03T14:40:56;23.10;99.90
6641;DHT22;3356;49.360;8.266;2022-09-03T14:52:14;22.50;99.90
6641;DHT22;3356;49.360;8.266;2022-09-03T14:54:51;22.30;99.90
6641;DHT22;3356;49.360;8.266;2022-09-03T15:01:31;22.10;99.90
6641;DHT22;3356;49.360;8.266;2022-09-03T15:10:49;21.90;99.90
6641;DHT22;3356;49.360;8.266;2022-09-03T15:12:56;22.10;99.90
6641;DHT22;3356;49.360;8.266;2022-09-03T15:15:02;22.20;99.90
6641;DHT22;3356;49.360;8.266;2022-09-03T15:29:51;22.00;99.90
6641;DHT22;3356;49.360;8.266;2022-09-03T15:32:08;21.90;99.90
6641;DHT22;3356;49.360;8.266;2022-09-03T15:34:30;21.90;99.90
6641;DHT22;3356;49.360;8.266;2022-09-03T15:36:39;21.90;99.90
6641;DHT22;3356;49.360;8.266;2022-09-03T15:38:49;21.80;99.90
6641;DHT22;3356;49.360;8.266;2022-09-03T15:40:53;21.60;99.90
6641;DHT22;3356;49.360;8.266;2022-09-03T15:43:08;21.50;99.90
6641;DHT22;3356;49.360;8.266;2022-09-03T15:47:54;21.30;99.90
6641;DHT22;3356;49.360;8.266;2022-09-03T15:50:09;21.20;99.90
6641;DHT22;3356;49.360;8.266;2022-09-03T15:52:31;21.20;99.90
6641;DHT22;3356;49.360;8.266;2022-09-03T15:55:40;21.10;99.90
6641;DHT22;3356;49.360;8.266;2022-09-03T16:00:12;21.30;99.90
6641;DHT22;3356;49.360;8.266;2022-09-03T16:03:07;21.20;99.90
6641;DHT22;3356;49.360;8.266;2022-09-03T16:05:02;21.20;99.90
6641;DHT22;3356;49.360;8.266;2022-09-03T16:09:19;21.20;99.90
6641;DHT22;3356;49.360;8.266;2022-09-03T16:14:43;21.30;99.90
6641;DHT22;3356;49.360;8.266;2022-09-03T16:16:56;21.30;99.90
6641;DHT22;3356;49.360;8.266;2022-09-03T16:23:59;21.10;99.90
6641;DHT22;3356;49.360;8.266;2022-09-03T16:26:14;21.10;99.90
6641;DHT22;3356;49.360;8.266;2022-09-03T16:28:20;21.10;99.90
6641;DHT22;3356;49.360;8.266;2022-09-03T16:35:29;21.10;99.90
6641;DHT22;3356;49.360;8.266;2022-09-03T16:50:24;21.20;99.90
6641;DHT22;3356;49.360;8.266;2022-09-03T16:59:34;21.40;99.90
6641;DHT22;3356;49.360;8.266;2022-09-03T17:13:47;21.50;99.90
6641;DHT22;3356;49.360;8.266;2022-09-03T17:16:20;21.60;99.90
6641;DHT22;3356;49.360;8.266;2022-09-03T17:18:49;21.50;99.90
6641;DHT22;3356;49.360;8.266;2022-09-03T17:23:57;21.60;99.90
6641;DHT22;3356;49.360;8.266;2022-09-03T17:28:25;21.30;99.90
6641;DHT22;3356;49.360;8.266;2022-09-03T17:30:57;21.20;99.90
6641;DHT22;3356;49.360;8.266;2022-09-03T17:36:01;21.10;99.90
6641;DHT22;3356;49.360;8.266;2022-09-03T17:41:04;21.00;99.90
6641;DHT22;3356;49.360;8.266;2022-09-03T17:45:55;20.80;99.90
6641;DHT22;3356;49.360;8.266;2022-09-03T17:48:15;20.70;99.90
6641;DHT22;3356;49.360;8.266;2022-09-03T17:50:25;20.70;99.90
6641;DHT22;3356;49.360;8.266;2022-09-03T17:52:36;20.70;99.90
6641;DHT22;3356;49.360;8.266;2022-09-03T17:54:44;20.70;99.90
6641;DHT22;3356;49.360;8.266;2022-09-03T18:01:25;20.80;99.90
6641;DHT22;3356;49.360;8.266;2022-09-03T18:03:52;20.70;99.90
6641;DHT22;3356;49.360;8.266;2022-09-03T18:05:57;20.70;99.90
6641;DHT22;3356;49.360;8.266;2022-09-03T18:10:41;20.50;99.90
6641;DHT22;3356;49.360;8.266;2022-09-03T18:13:20;20.50;99.90